アピア の空港の天気 - METARとTAF

ファレオロ国際空港(サモア) ( NSFA / APW ) - サモア アピア
飛行場実況気象(Metar)
観測時間05/27 13:00 WSST (05/27 00:00 UTC)
風向・風速東北東 4m/s
視程10km以上
天気現象
全天の4割程度の雲 雲底高度 610m
気温33℃
湿度67%
気圧1013hPa
METARNSFA 270000Z 06007KT 020V130 9999 SCT020 33/26 Q1013 RMK NIL
過去の天気等 Google飛行場航空写真 Wunderground天気予報

過去48時間のMETAR

飛行場予報(TAF)
発表時間: 5/27 12:22 WSST (5/26 23:22 UTC)
予報対象時間: 27日13時 WSST ~ 28日13時 WSST
風向・風速北東 5m/s
視程10km以上
全天の4割程度の雲 雲底高度 610m
27日13時 WSST ~ 27日17時 WSST に 確率 30% で一時的に
視程5000m
天気現象雷雨
全天の8割程度の雲 雲底高度 460m
少しの積乱雲 雲底高度 610m
27日21時 WSST ~ 28日13時 WSST に 確率 40% で一時的に
視程3000m
天気現象雷雨
全天の8割程度の雲 雲底高度 460m
少しの積乱雲 雲底高度 550m
TAF NSFA 262322Z 2700/2724 04009KT 9999 SCT020
PROB30 TEMPO 2700/2704 5000 TSRA BKN015 FEW020CB
PROB40 TEMPO 2708/2724 3000 TSRA BKN015 FEW018CB